Time;durP1;ratioP1;P1;durP2;ratioP2;P2;SDS_P1;SDS_P2;PMS_P1;PMS_P2;Temp;Humidity;BMP_temperature;BMP_pressure;BME280_temperature;BME280_humidity;BME280_pressure;Samples;Min_cycle;Max_cycle;Signal;HPM_P1;HPM_P2
2022/06/23 00:01:57;;;;;;;10.82;6.50;;;;;;;;;;5031421;28;20053;-72
2022/06/23 00:04:26;;;;;;;11.00;6.47;;;;;;;;;;5030916;28;20054;-70
2022/06/23 00:06:55;;;;;;;10.32;6.03;;;;;;;;;;5032704;28;20052;-71
2022/06/23 00:09:21;;;;;;;;;;;;;;;;;;5031581;28;20041;-72
2022/06/23 00:11:50;;;;;;;10.43;6.45;;;;;;;;;;5030759;28;19928;-71
2022/06/23 00:14:16;;;;;;;9.85;6.25;;;;;;;;;;5031037;28;20050;-71
2022/06/23 00:16:44;;;;;;;8.90;6.10;;;;;;;;;;5031110;28;20049;-69
2022/06/23 00:19:14;;;;;;;10.98;6.95;;;;;;;;;;5047620;28;20041;-68
2022/06/23 00:21:43;;;;;;;7.03;5.40;;;;;;;;;;5030741;28;20038;-70
2022/06/23 00:24:20;;;;;;;9.75;6.32;;;;;;;;;;5012081;28;20059;-70
2022/06/23 00:26:46;;;;;;;10.55;6.57;;;;;;;;;;5012154;28;20054;-71
2022/06/23 00:29:15;;;;;;;13.10;7.20;;;;;;;;;;5012980;28;20530;-71
2022/06/23 00:31:45;;;;;;;9.43;7.05;;;;;;;;;;5012316;28;20487;-71
2022/06/23 00:34:21;;;;;;;12.32;7.32;;;;;;;;;;5011787;28;20046;-71
2022/06/23 00:36:52;;;;;;;9.95;6.93;;;;;;;;;;5012884;28;20112;-71
2022/06/23 00:39:21;;;;;;;8.88;6.72;;;;;;;;;;5012934;28;20045;-71
2022/06/23 00:41:47;;;;;;;12.77;7.75;;;;;;;;;;5011553;28;20077;-71
2022/06/23 00:44:17;;;;;;;11.73;7.60;;;;;;;;;;5011448;28;20057;-71
2022/06/23 00:46:45;;;;;;;9.95;6.65;;;;;;;;;;5010914;28;20046;-71
2022/06/23 00:49:29;;;;;;;15.48;7.45;;;;;;;;;;5011397;28;20054;-71
2022/06/23 00:51:58;;;;;;;12.27;7.47;;;;;;;;;;5011443;28;20050;-71
2022/06/23 00:54:28;;;;;;;11.68;8.65;;;;;;;;;;5012941;28;20136;-71
2022/06/23 00:56:54;;;;;;;;;;;;;;;;;;5013332;28;20132;-71
2022/06/23 00:59:23;;;;;;;11.80;7.80;;;;;;;;;;5012927;28;20025;-71
2022/06/23 01:01:50;;;;;;;12.32;7.65;;;;;;;;;;5010879;28;20078;-70
2022/06/23 01:04:25;;;;;;;11.77;7.32;;;;;;;;;;5010761;28;20410;-70
2022/06/23 01:07:02;;;;;;;12.57;7.68;;;;;;;;;;5011517;28;20053;-70
2022/06/23 01:09:28;;;;;;;11.15;7.60;;;;;;;;;;5010917;28;20053;-71
2022/06/23 01:12:07;;;;;;;14.13;7.65;;;;;;;;;;5011090;28;20122;-70
2022/06/23 01:14:38;;;;;;;13.88;8.15;;;;;;;;;;5010923;28;20088;-71
2022/06/23 01:17:04;;;;;;;11.65;7.55;;;;;;;;;;5010509;28;20578;-70
2022/06/23 01:19:45;;;;;;;10.80;7.25;;;;;;;;;;5027055;28;20573;-70
2022/06/23 01:22:22;;;;;;;11.48;8.05;;;;;;;;;;5011097;28;20049;-70
2022/06/23 01:24:59;;;;;;;11.45;8.25;;;;;;;;;;5010872;28;20065;-70
2022/06/23 01:27:37;;;;;;;10.55;7.85;;;;;;;;;;5010911;28;20402;-71
2022/06/23 01:30:05;;;;;;;9.70;7.13;;;;;;;;;;5011889;28;20101;-70
2022/06/23 01:32:33;;;;;;;12.15;7.45;;;;;;;;;;5011815;28;20052;-70
2022/06/23 01:35:06;;;;;;;13.75;7.00;;;;;;;;;;5010916;28;20538;-70
2022/06/23 01:37:39;;;;;;;10.15;7.35;;;;;;;;;;5010443;28;20045;-71
2022/06/23 01:40:26;;;;;;;11.00;7.20;;;;;;;;;;5011834;28;20046;-70
2022/06/23 01:43:01;;;;;;;10.48;6.47;;;;;;;;;;5024642;28;20097;-70
2022/06/23 01:45:45;;;;;;;12.05;8.43;;;;;;;;;;5010916;28;20104;-70
2022/06/23 01:48:53;;;;;;;11.35;7.78;;;;;;;;;;5010244;28;20081;-70
2022/06/23 01:51:31;;;;;;;16.05;8.85;;;;;;;;;;4999840;28;20049;-70
2022/06/23 01:54:11;;;;;;;17.45;8.63;;;;;;;;;;5011565;28;20054;-71
2022/06/23 01:56:40;;;;;;;9.80;6.60;;;;;;;;;;5011228;28;20410;-71
2022/06/23 01:59:16;;;;;;;10.00;7.13;;;;;;;;;;4993220;28;20089;-71
2022/06/23 02:01:50;;;;;;;13.27;8.27;;;;;;;;;;4993844;28;20061;-70
2022/06/23 02:04:24;;;;;;;15.23;7.85;;;;;;;;;;5011385;28;20046;-71
2022/06/23 02:06:56;;;;;;;11.23;7.10;;;;;;;;;;4993483;28;20177;-71
2022/06/23 02:09:41;;;;;;;11.70;7.38;;;;;;;;;;4993679;28;20049;-71
2022/06/23 02:12:22;;;;;;;18.77;8.90;;;;;;;;;;4993897;28;20112;-71
2022/06/23 02:14:54;;;;;;;12.60;8.05;;;;;;;;;;4992327;28;20497;-71
2022/06/23 02:17:39;;;;;;;11.02;7.25;;;;;;;;;;4993668;28;20569;-71
2022/06/23 02:20:18;;;;;;;12.80;7.88;;;;;;;;;;4993416;28;20053;-71
2022/06/23 02:22:46;;;;;;;12.77;7.78;;;;;;;;;;5010741;28;20439;-71
2022/06/23 02:25:21;;;;;;;12.68;7.72;;;;;;;;;;4993411;28;20046;-71
2022/06/23 02:27:51;;;;;;;13.55;9.00;;;;;;;;;;5010325;28;20048;-70
2022/06/23 02:30:28;;;;;;;14.13;8.93;;;;;;;;;;5010876;28;20121;-70
2022/06/23 02:33:00;;;;;;;17.13;9.43;;;;;;;;;;5009981;28;20148;-70
2022/06/23 02:35:26;;;;;;;14.68;9.35;;;;;;;;;;4993149;28;20505;-70
2022/06/23 02:38:12;;;;;;;16.30;9.60;;;;;;;;;;5010708;28;20046;-70
2022/06/23 02:40:38;;;;;;;13.50;8.73;;;;;;;;;;4992684;28;20137;-70
2022/06/23 02:43:04;;;;;;;13.90;9.38;;;;;;;;;;4993160;28;20116;-70
2022/06/23 02:45:50;;;;;;;17.63;10.48;;;;;;;;;;5010415;28;20050;-70
2022/06/23 02:48:42;;;;;;;16.15;10.13;;;;;;;;;;4993950;28;20064;-70
2022/06/23 02:51:20;;;;;;;17.60;10.20;;;;;;;;;;5029405;28;20413;-71
2022/06/23 02:53:52;;;;;;;14.85;9.77;;;;;;;;;;5011507;28;20050;-70
2022/06/23 02:56:18;;;;;;;13.27;8.90;;;;;;;;;;4992872;28;20050;-70
2022/06/23 02:58:58;;;;;;;16.83;10.60;;;;;;;;;;5028361;28;20445;-70
2022/06/23 03:01:24;;;;;;;14.48;9.40;;;;;;;;;;5029282;28;20073;-71
2022/06/23 03:04:00;;;;;;;18.60;10.95;;;;;;;;;;5011020;28;20497;-71
2022/06/23 03:06:44;;;;;;;17.25;9.50;;;;;;;;;;5029167;28;20085;-72
2022/06/23 03:09:40;;;;;;;16.27;10.27;;;;;;;;;;5029084;28;20048;-71
2022/06/23 03:12:15;;;;;;;16.38;9.77;;;;;;;;;;4897780;29;20056;-71
2022/06/23 03:14:50;;;;;;;14.40;9.10;;;;;;;;;;4929259;29;20513;-71
2022/06/23 03:17:21;;;;;;;16.40;9.70;;;;;;;;;;4913810;29;20143;-71
2022/06/23 03:20:05;;;;;;;18.50;10.75;;;;;;;;;;4913264;29;20047;-71
2022/06/23 03:22:38;;;;;;;16.48;10.32;;;;;;;;;;4929150;29;20111;-70
2022/06/23 03:25:27;;;;;;;21.05;11.45;;;;;;;;;;4914240;29;20074;-71
2022/06/23 03:27:59;;;;;;;17.27;9.85;;;;;;;;;;4908578;29;20060;-71
2022/06/23 03:30:30;;;;;;;18.48;10.52;;;;;;;;;;4913699;29;20156;-70
2022/06/23 03:32:59;;;;;;;21.20;10.73;;;;;;;;;;4929764;29;20071;-69
2022/06/23 03:35:37;;;;;;;30.02;12.68;;;;;;;;;;4914611;29;20063;-70
2022/06/23 03:38:06;;;;;;;17.42;10.10;;;;;;;;;;4913912;29;20152;-70
2022/06/23 03:43:26;;;;;;;18.27;10.25;;;;;;;;;;4929213;29;20096;-70
2022/06/23 03:45:56;;;;;;;32.42;13.65;;;;;;;;;;4913886;29;20081;-71
2022/06/23 03:48:31;;;;;;;25.58;12.52;;;;;;;;;;4933440;28;20054;-70
2022/06/23 03:50:59;;;;;;;20.20;11.23;;;;;;;;;;4993635;28;20473;-70
2022/06/23 03:53:31;;;;;;;19.88;11.15;;;;;;;;;;5025274;28;20034;-70
2022/06/23 03:56:24;;;;;;;22.20;11.35;;;;;;;;;;5009520;28;20495;-70
2022/06/23 03:59:05;;;;;;;18.17;10.82;;;;;;;;;;5005660;28;20058;-70
2022/06/23 04:01:41;;;;;;;17.75;10.40;;;;;;;;;;5023928;28;20081;-70
2022/06/23 04:04:30;;;;;;;27.27;12.55;;;;;;;;;;5027471;28;20045;-70
2022/06/23 04:06:56;;;;;;;20.30;11.02;;;;;;;;;;5028421;28;20037;-70
2022/06/23 04:09:27;;;;;;;32.28;13.60;;;;;;;;;;5026745;28;20049;-70
2022/06/23 04:12:05;;;;;;;19.13;11.65;;;;;;;;;;5028608;28;20060;-70
2022/06/23 04:14:39;;;;;;;16.20;9.80;;;;;;;;;;5027169;28;20049;-71
2022/06/23 04:17:08;;;;;;;26.10;11.98;;;;;;;;;;5009040;28;20082;-70
2022/06/23 04:19:34;;;;;;;;;;;;;;;;;;5028738;28;20045;-71
2022/06/23 04:22:04;;;;;;;20.60;10.73;;;;;;;;;;5027200;28;20377;-71
2022/06/23 04:24:30;;;;;;;24.05;10.95;;;;;;;;;;5026852;28;20394;-70
2022/06/23 04:27:04;;;;;;;27.70;13.35;;;;;;;;;;5027074;28;20049;-71
2022/06/23 04:29:34;;;;;;;19.50;11.35;;;;;;;;;;5027215;28;20087;-70
2022/06/23 04:32:03;;;;;;;37.42;17.38;;;;;;;;;;5028550;28;20053;-71
2022/06/23 04:34:32;;;;;;;21.00;11.48;;;;;;;;;;5026998;28;20510;-70
2022/06/23 04:36:58;;;;;;;18.40;11.60;;;;;;;;;;5028226;28;20045;-72
2022/06/23 04:39:30;;;;;;;16.85;10.20;;;;;;;;;;5030601;28;20478;-71
2022/06/23 04:42:14;;;;;;;17.67;10.70;;;;;;;;;;5030962;28;20146;-70
2022/06/23 04:44:48;;;;;;;30.90;14.02;;;;;;;;;;5031462;28;20052;-71
2022/06/23 04:47:19;;;;;;;32.90;14.68;;;;;;;;;;5031801;28;20081;-72
2022/06/23 04:49:51;;;;;;;19.80;11.02;;;;;;;;;;5029742;28;20804;-70
2022/06/23 04:52:23;;;;;;;39.80;15.43;;;;;;;;;;5030127;28;20100;-70
2022/06/23 04:55:04;;;;;;;28.83;13.55;;;;;;;;;;5029682;28;20057;-70
2022/06/23 04:57:40;;;;;;;31.00;16.00;;;;;;;;;;5030257;28;20053;-70
2022/06/23 05:00:06;;;;;;;24.73;12.85;;;;;;;;;;5030289;28;20406;-70
2022/06/23 05:02:32;;;;;;;19.10;11.70;;;;;;;;;;5029951;28;20045;-70
2022/06/23 05:05:01;;;;;;;17.50;11.35;;;;;;;;;;5030086;28;20057;-71
2022/06/23 05:07:41;;;;;;;19.48;12.23;;;;;;;;;;5029236;28;20042;-71
2022/06/23 05:10:08;;;;;;;30.92;13.73;;;;;;;;;;5030009;28;20060;-70
2022/06/23 05:12:39;;;;;;;19.40;11.70;;;;;;;;;;5029903;28;20046;-71
2022/06/23 05:15:24;;;;;;;22.40;13.00;;;;;;;;;;5031389;28;20084;-71
2022/06/23 05:17:53;;;;;;;27.40;13.25;;;;;;;;;;5029857;28;20132;-71
2022/06/23 05:20:31;;;;;;;28.77;14.05;;;;;;;;;;5030108;28;20045;-71
2022/06/23 05:22:57;;;;;;;40.03;18.15;;;;;;;;;;5029772;28;20049;-70
2022/06/23 05:25:35;;;;;;;69.65;25.83;;;;;;;;;;5031280;28;20797;-70
2022/06/23 05:28:03;;;;;;;48.97;19.80;;;;;;;;;;5031158;28;20464;-70
2022/06/23 05:30:30;;;;;;;62.88;23.85;;;;;;;;;;5029645;28;20045;-70
2022/06/23 05:33:12;;;;;;;33.88;16.25;;;;;;;;;;5029726;28;20041;-70
2022/06/23 05:35:42;;;;;;;42.42;18.70;;;;;;;;;;5029243;28;20049;-70
2022/06/23 05:38:22;;;;;;;40.40;17.20;;;;;;;;;;5012664;28;20402;-70
2022/06/23 05:41:02;;;;;;;20.25;12.32;;;;;;;;;;5030541;28;20046;-71
2022/06/23 05:43:28;;;;;;;27.67;12.63;;;;;;;;;;5030341;28;20037;-70
2022/06/23 05:45:59;;;;;;;21.25;13.40;;;;;;;;;;5030609;28;20057;-70
2022/06/23 05:48:28;;;;;;;20.25;11.57;;;;;;;;;;5029262;28;20049;-70
2022/06/23 05:51:02;;;;;;;57.50;20.23;;;;;;;;;;5024094;28;20132;-70
2022/06/23 05:53:32;;;;;;;16.92;11.32;;;;;;;;;;5010509;28;20062;-71
2022/06/23 05:56:02;;;;;;;29.48;13.65;;;;;;;;;;4993765;28;20038;-71
2022/06/23 05:58:31;;;;;;;43.78;16.45;;;;;;;;;;5010425;28;20053;-71
2022/06/23 06:01:00;;;;;;;27.20;13.27;;;;;;;;;;4993506;28;20380;-71
2022/06/23 06:03:39;;;;;;;55.05;19.23;;;;;;;;;;4992774;28;20060;-71
2022/06/23 06:06:05;;;;;;;32.70;13.20;;;;;;;;;;5010208;28;20045;-71
2022/06/23 06:09:35;;;;;;;30.70;12.27;;;;;;;;;;4992480;28;20060;-71
2022/06/23 06:11:26;;;;;;;21.17;10.65;;;;;;;;;;5010171;28;20494;-70
2022/06/23 06:13:52;;;;;;;28.50;13.23;;;;;;;;;;4992786;28;20124;-71
2022/06/23 06:16:19;;;;;;;37.45;13.48;;;;;;;;;;5002456;28;20100;-71
2022/06/23 06:18:46;;;;;;;37.13;15.43;;;;;;;;;;4992120;28;20342;-70
2022/06/23 06:21:16;;;;;;;47.10;18.13;;;;;;;;;;4996986;28;20053;-71
2022/06/23 06:23:51;;;;;;;35.30;15.15;;;;;;;;;;4992256;28;20045;-71
2022/06/23 06:26:19;;;;;;;23.38;11.10;;;;;;;;;;4974659;28;20058;-71
2022/06/23 06:28:45;;;;;;;32.35;14.15;;;;;;;;;;5009964;28;20354;-70
2022/06/23 06:31:11;;;;;;;15.35;10.75;;;;;;;;;;4992521;28;20137;-70
2022/06/23 06:33:46;;;;;;;16.00;9.85;;;;;;;;;;5009935;28;20129;-70
2022/06/23 06:36:23;;;;;;;15.05;9.60;;;;;;;;;;4991853;28;20053;-70
2022/06/23 06:38:49;;;;;;;20.00;9.77;;;;;;;;;;4992239;28;20354;-70
2022/06/23 06:41:15;;;;;;;20.77;11.65;;;;;;;;;;5010020;28;20096;-70
2022/06/23 06:43:41;;;;;;;35.22;12.02;;;;;;;;;;4992218;28;20054;-70
2022/06/23 06:46:07;;;;;;;11.57;8.35;;;;;;;;;;5009924;28;20083;-70
2022/06/23 06:48:36;;;;;;;18.92;10.23;;;;;;;;;;5008721;28;20441;-70
2022/06/23 06:51:07;;;;;;;22.63;10.73;;;;;;;;;;5014775;28;20049;-70
2022/06/23 06:53:36;;;;;;;21.48;11.35;;;;;;;;;;5011155;28;20430;-71
2022/06/23 06:56:07;;;;;;;26.58;11.85;;;;;;;;;;5011555;28;20049;-70
2022/06/23 06:58:37;;;;;;;27.58;11.60;;;;;;;;;;5029116;28;20048;-70
2022/06/23 07:01:07;;;;;;;22.15;11.25;;;;;;;;;;5011414;28;20406;-70
2022/06/23 07:03:35;;;;;;;22.40;10.48;;;;;;;;;;5010737;28;20045;-70
2022/06/23 07:06:05;;;;;;;10.18;7.38;;;;;;;;;;5029601;28;20041;-70
2022/06/23 07:08:40;;;;;;;19.27;9.75;;;;;;;;;;5011287;28;20184;-70
2022/06/23 07:11:16;;;;;;;28.38;11.77;;;;;;;;;;5011661;28;20046;-70
2022/06/23 07:13:47;;;;;;;24.58;9.93;;;;;;;;;;5028647;28;20402;-70
2022/06/23 07:16:16;;;;;;;23.40;9.20;;;;;;;;;;5011439;28;20061;-70
2022/06/23 07:18:45;;;;;;;9.40;6.05;;;;;;;;;;5010271;28;20041;-70
2022/06/23 07:21:19;;;;;;;20.23;9.27;;;;;;;;;;5029153;28;20045;-70
2022/06/23 07:23:55;;;;;;;19.20;8.15;;;;;;;;;;5011239;28;20057;-70
2022/06/23 07:26:21;;;;;;;17.95;7.68;;;;;;;;;;4977039;28;20042;-70
2022/06/23 07:28:50;;;;;;;12.52;5.78;;;;;;;;;;5010861;28;20409;-70
2022/06/23 07:31:16;;;;;;;;;;;;;;;;;;5011834;28;20092;-71
2022/06/23 07:33:48;;;;;;;28.63;9.73;;;;;;;;;;5009389;28;19932;-70
2022/06/23 07:36:23;;;;;;;9.23;5.93;;;;;;;;;;5028686;28;20134;-70
2022/06/23 07:38:49;;;;;;;14.82;6.15;;;;;;;;;;5028602;28;20054;-70
2022/06/23 07:41:21;;;;;;;37.22;11.45;;;;;;;;;;5010890;28;20072;-70
2022/06/23 07:43:50;;;;;;;22.52;7.93;;;;;;;;;;5010922;28;20505;-70
2022/06/23 07:46:16;;;;;;;28.45;9.40;;;;;;;;;;5011103;28;20045;-71
2022/06/23 07:48:42;;;;;;;19.98;7.43;;;;;;;;;;5010519;28;20128;-72
2022/06/23 07:51:09;;;;;;;13.85;5.50;;;;;;;;;;5028684;28;20550;-71
2022/06/23 07:53:36;;;;;;;11.90;5.63;;;;;;;;;;5028691;28;20120;-71
2022/06/23 07:56:04;;;;;;;20.93;8.47;;;;;;;;;;5029092;28;20042;-70
2022/06/23 07:58:32;;;;;;;14.23;6.82;;;;;;;;;;5011117;28;20466;-71
2022/06/23 08:01:17;;;;;;;9.82;5.65;;;;;;;;;;5028417;28;20049;-71
2022/06/23 08:03:48;;;;;;;10.25;5.45;;;;;;;;;;5010886;28;20057;-70
2022/06/23 08:06:18;;;;;;;26.85;8.65;;;;;;;;;;5028899;28;20047;-70
2022/06/23 08:08:45;;;;;;;22.70;8.32;;;;;;;;;;5010472;28;20049;-71
2022/06/23 08:14:00;;;;;;;13.90;6.05;;;;;;;;;;5031634;28;20046;-71
2022/06/23 08:19:17;;;;;;;11.27;5.35;;;;;;;;;;5032264;28;20424;-70
2022/06/23 08:21:45;;;;;;;17.85;6.55;;;;;;;;;;5014501;28;20430;-69
2022/06/23 08:24:17;;;;;;;9.13;5.43;;;;;;;;;;5032267;28;20477;-69
2022/06/23 08:26:46;;;;;;;22.58;7.40;;;;;;;;;;4997792;28;20050;-70
2022/06/23 08:29:14;;;;;;;26.58;8.60;;;;;;;;;;5014539;28;20044;-69
2022/06/23 08:31:40;;;;;;;24.67;7.85;;;;;;;;;;5013686;28;20128;-70
2022/06/23 08:34:06;;;;;;;13.88;6.30;;;;;;;;;;5014672;28;20132;-70
2022/06/23 08:36:37;;;;;;;7.10;4.20;;;;;;;;;;5014277;28;20105;-70
2022/06/23 08:39:13;;;;;;;10.20;5.72;;;;;;;;;;5031840;28;20057;-69
2022/06/23 08:41:39;;;;;;;8.68;4.05;;;;;;;;;;5014192;28;20449;-70
2022/06/23 08:44:24;;;;;;;19.20;6.72;;;;;;;;;;5032187;28;20041;-69
2022/06/23 08:46:59;;;;;;;14.93;5.85;;;;;;;;;;5014328;28;20053;-69
2022/06/23 08:49:25;;;;;;;7.53;4.32;;;;;;;;;;4997286;28;20041;-69
2022/06/23 08:52:13;;;;;;;10.13;4.93;;;;;;;;;;5022084;28;20065;-70
2022/06/23 08:54:42;;;;;;;14.32;5.10;;;;;;;;;;5030154;28;20068;-70
2022/06/23 08:57:15;;;;;;;7.03;4.32;;;;;;;;;;5031516;28;20090;-70
2022/06/23 08:59:41;;;;;;;11.65;5.60;;;;;;;;;;5029444;28;20421;-70
2022/06/23 09:02:22;;;;;;;6.30;3.33;;;;;;;;;;5031697;28;20495;-69
2022/06/23 09:04:48;;;;;;;9.00;4.32;;;;;;;;;;5031030;28;20544;-70
2022/06/23 09:07:18;;;;;;;8.18;4.43;;;;;;;;;;5013793;28;20076;-70
2022/06/23 09:09:51;;;;;;;6.45;4.00;;;;;;;;;;5031252;28;20041;-70
2022/06/23 09:12:21;;;;;;;7.20;4.03;;;;;;;;;;5031388;28;20137;-70
2022/06/23 09:14:59;;;;;;;6.95;3.40;;;;;;;;;;5012703;28;20099;-69
2022/06/23 09:17:25;;;;;;;;;;;;;;;;;;5030778;28;20491;-70
2022/06/23 09:19:58;;;;;;;6.63;3.30;;;;;;;;;;5029758;28;19925;-70
2022/06/23 09:22:27;;;;;;;7.15;3.67;;;;;;;;;;5031241;28;20445;-70
2022/06/23 09:24:57;;;;;;;5.93;3.10;;;;;;;;;;5030674;28;20045;-71
2022/06/23 09:27:34;;;;;;;7.97;3.42;;;;;;;;;;5029665;28;20049;-71
2022/06/23 09:30:06;;;;;;;7.82;4.28;;;;;;;;;;5029671;28;20060;-70
2022/06/23 09:32:44;;;;;;;7.82;4.15;;;;;;;;;;5029574;28;20044;-71
2022/06/23 09:35:13;;;;;;;4.90;2.90;;;;;;;;;;5029814;28;20052;-71
2022/06/23 09:37:39;;;;;;;9.70;4.35;;;;;;;;;;5030759;28;20064;-70
2022/06/23 09:40:14;;;;;;;9.77;4.25;;;;;;;;;;5029499;28;20483;-71
2022/06/23 09:42:59;;;;;;;7.30;3.60;;;;;;;;;;5028773;28;20433;-71
2022/06/23 09:45:40;;;;;;;4.53;2.80;;;;;;;;;;5029647;28;20060;-71
2022/06/23 09:48:06;;;;;;;9.60;3.08;;;;;;;;;;5029692;28;20466;-71
2022/06/23 09:50:35;;;;;;;8.23;3.95;;;;;;;;;;5012451;28;20080;-71
2022/06/23 09:53:02;;;;;;;10.77;4.07;;;;;;;;;;5030861;28;20066;-70
2022/06/23 09:55:37;;;;;;;14.68;5.35;;;;;;;;;;5030352;28;20088;-71
2022/06/23 09:58:14;;;;;;;11.75;4.80;;;;;;;;;;5012211;28;20041;-71
2022/06/23 10:00:52;;;;;;;9.30;4.38;;;;;;;;;;5030454;28;20116;-71
2022/06/23 10:03:24;;;;;;;8.48;3.65;;;;;;;;;;5013070;28;20299;-71
2022/06/23 10:05:59;;;;;;;6.50;3.35;;;;;;;;;;5012485;28;20053;-71
2022/06/23 10:08:44;;;;;;;4.55;3.08;;;;;;;;;;5012631;28;20125;-71
2022/06/23 10:11:17;;;;;;;6.82;3.30;;;;;;;;;;5012931;28;20693;-71
2022/06/23 10:13:43;;;;;;;7.68;3.70;;;;;;;;;;5011714;28;20053;-71
2022/06/23 10:16:23;;;;;;;10.02;4.22;;;;;;;;;;5030437;28;20049;-71
2022/06/23 10:19:08;;;;;;;5.53;2.90;;;;;;;;;;5012150;28;20386;-71
2022/06/23 10:21:41;;;;;;;16.52;5.15;;;;;;;;;;4994152;28;20153;-70
2022/06/23 10:24:16;;;;;;;3.78;2.90;;;;;;;;;;4996038;28;20050;-71
2022/06/23 10:26:42;;;;;;;5.68;2.55;;;;;;;;;;5029149;28;20140;-72
2022/06/23 10:29:14;;;;;;;3.47;2.45;;;;;;;;;;5028277;28;20128;-71
2022/06/23 10:31:50;;;;;;;7.78;3.00;;;;;;;;;;5010874;28;20049;-71
2022/06/23 10:34:16;;;;;;;3.92;2.85;;;;;;;;;;5011645;28;20046;-71
2022/06/23 10:36:42;;;;;;;3.83;2.70;;;;;;;;;;4992683;28;20037;-70
2022/06/23 10:39:26;;;;;;;4.40;2.70;;;;;;;;;;5011240;28;20050;-70
2022/06/23 10:42:19;;;;;;;5.95;2.60;;;;;;;;;;4993014;28;20368;-71
2022/06/23 10:44:59;;;;;;;5.38;2.80;;;;;;;;;;5010378;28;20125;-71
2022/06/23 10:47:44;;;;;;;4.22;2.70;;;;;;;;;;4993084;28;20056;-70
2022/06/23 10:50:36;;;;;;;6.15;2.70;;;;;;;;;;4992937;28;20046;-71
2022/06/23 10:53:17;;;;;;;5.50;2.70;;;;;;;;;;4982436;28;20124;-71
2022/06/23 10:56:07;;;;;;;6.45;2.63;;;;;;;;;;5028872;28;20045;-70
2022/06/23 10:58:45;;;;;;;5.75;2.55;;;;;;;;;;5029060;28;20088;-71
2022/06/23 11:01:11;;;;;;;7.85;3.60;;;;;;;;;;4995552;28;20071;-71
2022/06/23 11:03:37;;;;;;;10.70;3.63;;;;;;;;;;5015846;28;20473;-71
2022/06/23 11:06:12;;;;;;;5.10;2.45;;;;;;;;;;4998463;28;20056;-72
2022/06/23 11:09:01;;;;;;;11.50;3.60;;;;;;;;;;5009694;28;20441;-71
2022/06/23 11:11:33;;;;;;;6.18;2.35;;;;;;;;;;4981707;28;20052;-71
2022/06/23 11:14:18;;;;;;;7.95;3.22;;;;;;;;;;5005125;28;20050;-72
2022/06/23 11:16:50;;;;;;;19.95;5.90;;;;;;;;;;4998572;28;20133;-72
2022/06/23 11:19:33;;;;;;;21.27;6.70;;;;;;;;;;4998732;28;20050;-71
2022/06/23 11:21:59;;;;;;;7.72;3.95;;;;;;;;;;4991832;28;20058;-70
2022/06/23 11:24:32;;;;;;;5.95;3.00;;;;;;;;;;4986832;28;20045;-71
2022/06/23 11:27:04;;;;;;;19.75;5.60;;;;;;;;;;5007635;28;20142;-72
2022/06/23 11:29:44;;;;;;;12.68;4.72;;;;;;;;;;5022187;28;20056;-72
2022/06/23 11:32:10;;;;;;;3.95;2.38;;;;;;;;;;4993849;28;20042;-72
2022/06/23 11:34:45;;;;;;;28.67;8.00;;;;;;;;;;5002129;28;20049;-71
2022/06/23 11:37:30;;;;;;;10.82;3.63;;;;;;;;;;4983704;28;20046;-71
2022/06/23 11:40:02;;;;;;;8.52;3.03;;;;;;;;;;5016224;28;20045;-71
2022/06/23 11:42:34;;;;;;;22.95;7.38;;;;;;;;;;5021866;28;20038;-72
2022/06/23 11:45:07;;;;;;;8.85;2.78;;;;;;;;;;4991918;28;20046;-72
2022/06/23 11:47:45;;;;;;;19.83;4.95;;;;;;;;;;4995870;28;20549;-71
2022/06/23 11:50:14;;;;;;;13.15;3.00;;;;;;;;;;5008675;28;20053;-72
2022/06/23 11:52:45;;;;;;;11.68;3.45;;;;;;;;;;5023086;28;20050;-72
2022/06/23 11:55:24;;;;;;;9.27;3.15;;;;;;;;;;5027037;28;20049;-72
2022/06/23 11:57:59;;;;;;;8.65;3.92;;;;;;;;;;5018845;28;20049;-72
2022/06/23 12:00:45;;;;;;;8.63;3.10;;;;;;;;;;5019944;28;20049;-72
2022/06/23 12:03:27;;;;;;;3.70;2.15;;;;;;;;;;5015936;28;20060;-71
2022/06/23 12:06:06;;;;;;;8.43;2.75;;;;;;;;;;5030953;28;20102;-71
2022/06/23 12:08:44;;;;;;;3.78;1.90;;;;;;;;;;5018745;28;20045;-71
2022/06/23 12:11:10;;;;;;;3.83;1.98;;;;;;;;;;5020512;28;20045;-73
2022/06/23 12:13:37;;;;;;;3.88;2.05;;;;;;;;;;5024444;28;20510;-70
2022/06/23 12:16:03;;;;;;;14.20;4.55;;;;;;;;;;5024788;28;20528;-72
2022/06/23 12:18:31;;;;;;;41.10;10.43;;;;;;;;;;5025940;28;20124;-71
2022/06/23 12:21:00;;;;;;;10.15;4.20;;;;;;;;;;5028359;28;20058;-73
2022/06/23 12:23:35;;;;;;;6.85;2.20;;;;;;;;;;5027320;28;20050;-72
2022/06/23 12:26:15;;;;;;;9.63;2.90;;;;;;;;;;5026772;28;20130;-72
2022/06/23 12:28:45;;;;;;;7.05;3.42;;;;;;;;;;5023959;28;20201;-72
2022/06/23 12:31:30;;;;;;;9.82;4.25;;;;;;;;;;5024298;28;20398;-72
2022/06/23 12:33:56;;;;;;;8.93;2.95;;;;;;;;;;5020404;28;20128;-72
2022/06/23 12:36:45;;;;;;;15.15;3.45;;;;;;;;;;5023795;28;20473;-72
2022/06/23 12:39:36;;;;;;;4.30;2.03;;;;;;;;;;5012408;28;20092;-72
2022/06/23 12:42:09;;;;;;;9.38;3.13;;;;;;;;;;5017048;28;20114;-72
2022/06/23 12:44:58;;;;;;;3.30;2.00;;;;;;;;;;5024946;28;20449;-72
2022/06/23 12:47:27;;;;;;;3.80;1.95;;;;;;;;;;5034790;28;20057;-72
2022/06/23 12:50:19;;;;;;;8.90;2.85;;;;;;;;;;5023666;28;20041;-72
2022/06/23 12:53:08;;;;;;;10.07;4.10;;;;;;;;;;5024740;28;20410;-72
2022/06/23 12:55:37;;;;;;;4.28;1.98;;;;;;;;;;4994543;28;20181;-72
2022/06/23 12:58:23;;;;;;;9.95;3.25;;;;;;;;;;5031450;28;20046;-72
2022/06/23 13:00:57;;;;;;;10.45;3.28;;;;;;;;;;5024682;28;20056;-73
2022/06/23 13:03:41;;;;;;;3.55;2.00;;;;;;;;;;5028021;28;20176;-72
2022/06/23 13:06:10;;;;;;;3.63;2.08;;;;;;;;;;5007065;28;20045;-72
2022/06/23 13:08:47;;;;;;;5.20;1.90;;;;;;;;;;5030974;28;20417;-72
2022/06/23 13:11:25;;;;;;;8.65;2.92;;;;;;;;;;5031514;28;20045;-71
2022/06/23 13:13:53;;;;;;;3.38;1.80;;;;;;;;;;5029845;28;20056;-73
2022/06/23 13:16:40;;;;;;;5.80;2.25;;;;;;;;;;5027185;28;20661;-72
2022/06/23 13:19:11;;;;;;;8.20;3.22;;;;;;;;;;5024355;28;20158;-72
2022/06/23 13:21:39;;;;;;;2.97;1.90;;;;;;;;;;4995050;28;20391;-72
2022/06/23 13:24:10;;;;;;;5.00;2.55;;;;;;;;;;5007335;28;20454;-72
2022/06/23 13:26:39;;;;;;;4.18;1.90;;;;;;;;;;5005462;28;20046;-72
2022/06/23 13:29:08;;;;;;;6.40;2.08;;;;;;;;;;5006911;28;20045;-71
2022/06/23 13:31:34;;;;;;;3.67;1.98;;;;;;;;;;5006672;28;20042;-72
2022/06/23 13:34:00;;;;;;;5.70;1.88;;;;;;;;;;5002372;28;20156;-72
2022/06/23 13:36:32;;;;;;;8.63;3.00;;;;;;;;;;5015258;28;20516;-72
2022/06/23 13:39:04;;;;;;;4.63;2.08;;;;;;;;;;5006590;28;20136;-72
2022/06/23 13:41:40;;;;;;;6.95;2.75;;;;;;;;;;4983505;28;20049;-73
2022/06/23 13:44:12;;;;;;;5.50;1.83;;;;;;;;;;5000508;28;20164;-72
2022/06/23 13:46:40;;;;;;;7.70;2.47;;;;;;;;;;5017931;28;20154;-72
2022/06/23 13:49:09;;;;;;;7.75;2.83;;;;;;;;;;5023295;28;20049;-73
2022/06/23 13:51:49;;;;;;;4.07;2.13;;;;;;;;;;5023636;28;20053;-73
2022/06/23 13:54:19;;;;;;;8.50;2.90;;;;;;;;;;4986689;28;20062;-73
2022/06/23 13:56:57;;;;;;;4.47;2.10;;;;;;;;;;5002302;28;20382;-73
2022/06/23 13:59:26;;;;;;;2.92;2.10;;;;;;;;;;5005867;28;20049;-73
2022/06/23 14:02:10;;;;;;;11.45;4.00;;;;;;;;;;5002176;28;20041;-72
2022/06/23 14:04:38;;;;;;;16.60;4.72;;;;;;;;;;5016419;28;20044;-72
2022/06/23 14:07:11;;;;;;;6.45;2.70;;;;;;;;;;5030436;28;20045;-73
2022/06/23 14:09:56;;;;;;;2.45;2.22;;;;;;;;;;4999042;28;20061;-72
2022/06/23 14:12:40;;;;;;;11.95;4.15;;;;;;;;;;5025962;28;20183;-72
2022/06/23 14:15:26;;;;;;;4.25;2.17;;;;;;;;;;5023330;28;20478;-72
2022/06/23 14:17:56;;;;;;;4.43;2.20;;;;;;;;;;5011669;28;20064;-72
2022/06/23 14:20:35;;;;;;;8.13;2.15;;;;;;;;;;5023768;28;20303;-72
2022/06/23 14:23:08;;;;;;;9.55;3.30;;;;;;;;;;5000045;28;20071;-73
2022/06/23 14:25:37;;;;;;;2.75;2.00;;;;;;;;;;5023365;28;20395;-73
2022/06/23 14:28:06;;;;;;;3.05;1.80;;;;;;;;;;5023765;28;20042;-73
2022/06/23 14:30:41;;;;;;;10.10;3.50;;;;;;;;;;5023334;28;20037;-73
2022/06/23 14:33:11;;;;;;;21.65;7.03;;;;;;;;;;4998998;28;20041;-73
2022/06/23 14:35:37;;;;;;;10.35;3.83;;;;;;;;;;5010228;28;20121;-73
2022/06/23 14:38:13;;;;;;;34.90;11.07;;;;;;;;;;5021148;28;20125;-73
2022/06/23 14:40:46;;;;;;;38.72;9.70;;;;;;;;;;5024609;28;20052;-73
2022/06/23 14:43:21;;;;;;;8.10;3.67;;;;;;;;;;5005552;28;20602;-73
2022/06/23 14:45:59;;;;;;;3.25;1.80;;;;;;;;;;5022967;28;20099;-72
2022/06/23 14:48:44;;;;;;;5.78;2.80;;;;;;;;;;4987314;28;20187;-73
2022/06/23 14:51:16;;;;;;;4.28;2.58;;;;;;;;;;5023259;28;20238;-72
2022/06/23 14:53:48;;;;;;;5.80;2.83;;;;;;;;;;5003520;28;20050;-73
2022/06/23 14:56:23;;;;;;;2.78;2.38;;;;;;;;;;5005042;28;20734;-73
2022/06/23 14:59:00;;;;;;;7.07;3.10;;;;;;;;;;4992421;28;20096;-73
2022/06/23 15:01:26;;;;;;;9.63;3.53;;;;;;;;;;4998529;28;20077;-72
2022/06/23 15:03:58;;;;;;;4.93;2.42;;;;;;;;;;4989938;28;20402;-73
2022/06/23 15:06:24;;;;;;;5.57;2.20;;;;;;;;;;4992979;28;20090;-72
2022/06/23 15:08:50;;;;;;;6.00;2.15;;;;;;;;;;5022577;28;20475;-72
2022/06/23 15:11:25;;;;;;;2.33;1.98;;;;;;;;;;5005758;28;20125;-73
2022/06/23 15:13:54;;;;;;;3.80;2.20;;;;;;;;;;5008925;28;20054;-73
2022/06/23 15:16:23;;;;;;;14.15;5.53;;;;;;;;;;5023577;28;20444;-73
2022/06/23 15:18:55;;;;;;;8.95;3.00;;;;;;;;;;5022677;28;20049;-73